Wheatland, California
Current Conditions -  °F | °C
As of 3:35 PM on Thursday 18 Dec 2014 (Local Time) from KLHM Reporting Station
Clear Clear  
Wind Chill: 59°   Ceiling: Unl
Heat Index: 59°   Visibility: 10mi
Dew Point: 45°   Wind: 5mph
Humidity: 59%   Direction: 170°S
Pressure: 30.14"   Gusts: NA
Location:  39.01°N, 121.42°W
Report Text: KLHM 182335Z AUTO 17004KT 10SM CLR 15/07 A3014 RMK AO1
Loading
Personal Weather Stations






























Interactive Weather Map New forecast layout! Learn more

10-Day Weather Forecast

Advertisements
Track Severe Weather on mobile